createdAt,value
2023-01-05T00:01:30.979Z,92.24
2023-01-05T00:03:59.207Z,92.19
2023-01-05T00:06:27.396Z,92.20
2023-01-05T00:08:55.460Z,92.24
2023-01-05T00:11:42.908Z,92.30
2023-01-05T00:14:32.167Z,92.37
2023-01-05T00:17:19.369Z,92.38
2023-01-05T00:20:05.521Z,92.35
2023-01-05T00:22:36.819Z,92.27
2023-01-05T00:25:12.046Z,92.26
2023-01-05T00:27:41.346Z,92.13
2023-01-05T00:30:10.648Z,91.98
2023-01-05T00:32:40.433Z,91.90
2023-01-05T00:35:09.985Z,91.83
2023-01-05T00:37:39.125Z,91.66
2023-01-05T00:40:08.779Z,91.40
2023-01-05T00:42:36.838Z,91.26
2023-01-05T00:45:06.083Z,91.16
2023-01-05T00:47:34.233Z,90.96
2023-01-05T00:50:03.873Z,90.76
2023-01-05T00:52:32.026Z,90.61
2023-01-05T00:55:00.124Z,90.49
2023-01-05T00:57:28.213Z,90.39
2023-01-05T00:59:56.199Z,90.23
2023-01-05T01:02:24.288Z,90.20
2023-01-05T01:04:52.582Z,90.22
2023-01-05T01:07:21.930Z,90.08
2023-01-05T01:09:51.183Z,90.00
2023-01-05T01:12:19.688Z,89.92
2023-01-05T01:14:48.162Z,90.01
2023-01-05T01:17:16.812Z,90.01
2023-01-05T01:19:46.553Z,89.98
2023-01-05T01:22:15.132Z,89.88
2023-01-05T01:24:44.521Z,89.77
2023-01-05T01:27:12.850Z,89.70
2023-01-05T01:29:40.903Z,89.67
2023-01-05T01:32:09.168Z,89.43
2023-01-05T01:34:37.167Z,89.18
2023-01-05T01:37:05.222Z,89.13
2023-01-05T01:39:33.877Z,88.98
2023-01-05T01:42:03.602Z,88.83
2023-01-05T01:44:51.693Z,88.67
2023-01-05T01:47:25.032Z,88.46
2023-01-05T01:49:54.181Z,88.43
2023-01-05T01:52:23.336Z,88.57
2023-01-05T01:54:51.914Z,88.63
2023-01-05T01:57:22.213Z,88.62
2023-01-05T01:59:50.449Z,88.60
2023-01-05T02:02:19.062Z,88.31
2023-01-05T02:04:47.310Z,88.03
2023-01-05T02:07:16.727Z,87.79
2023-01-05T02:09:45.078Z,87.70
2023-01-05T02:12:23.695Z,87.51
2023-01-05T02:15:00.461Z,87.55
2023-01-05T02:17:34.677Z,87.40
2023-01-05T02:20:34.123Z,87.43
2023-01-05T02:23:33.092Z,87.55
2023-01-05T02:26:49.656Z,87.76
2023-01-05T02:29:42.237Z,87.45
2023-01-05T02:32:15.542Z,87.27
2023-01-05T02:34:48.313Z,87.28
2023-01-05T02:37:20.735Z,87.17
2023-01-05T02:39:52.416Z,86.91
2023-01-05T02:42:22.349Z,86.87
2023-01-05T02:44:50.450Z,87.05
2023-01-05T02:47:40.449Z,86.97
2023-01-05T02:50:14.576Z,86.98
2023-01-05T02:52:46.289Z,87.07
2023-01-05T02:55:17.142Z,86.96
2023-01-05T02:57:50.886Z,86.74
2023-01-05T03:00:21.554Z,86.55
2023-01-05T03:02:54.083Z,86.54
2023-01-05T03:05:24.993Z,86.64
2023-01-05T03:07:54.344Z,86.76
2023-01-05T03:10:40.978Z,86.68
2023-01-05T03:13:27.351Z,86.52
2023-01-05T03:16:01.848Z,86.63
2023-01-05T03:18:32.612Z,86.31
2023-01-05T03:21:01.481Z,86.21
2023-01-05T03:23:47.417Z,86.03
2023-01-05T03:26:33.321Z,86.03
2023-01-05T03:29:19.785Z,85.76
2023-01-05T03:32:08.094Z,85.56
2023-01-05T03:35:00.502Z,85.44
2023-01-05T03:37:33.379Z,85.41
2023-01-05T03:40:03.189Z,85.68
2023-01-05T03:42:31.883Z,85.99
2023-01-05T03:45:00.114Z,86.21
2023-01-05T03:47:28.612Z,86.50
2023-01-05T03:49:58.112Z,86.79
2023-01-05T03:52:26.129Z,87.04
2023-01-05T03:54:54.269Z,87.05
2023-01-05T03:57:22.489Z,86.90
2023-01-05T03:59:50.611Z,87.16
2023-01-05T04:02:18.801Z,87.26
2023-01-05T04:04:47.171Z,87.46
2023-01-05T04:07:16.604Z,87.67
2023-01-05T04:09:44.818Z,87.73
2023-01-05T04:12:12.871Z,87.69
2023-01-05T04:14:41.133Z,87.69
2023-01-05T04:17:09.365Z,87.78
2023-01-05T04:19:37.566Z,88.11
2023-01-05T04:22:05.620Z,88.62
2023-01-05T04:24:35.090Z,89.16
2023-01-05T04:27:03.195Z,89.79
2023-01-05T04:29:31.296Z,90.34
2023-01-05T04:31:59.363Z,90.80
2023-01-05T04:34:27.385Z,91.24
2023-01-05T04:36:55.638Z,91.61
2023-01-05T04:39:23.719Z,91.86
2023-01-05T04:41:53.059Z,92.18
2023-01-05T04:44:21.336Z,92.40
2023-01-05T04:46:49.471Z,92.56
2023-01-05T04:49:17.517Z,92.78
2023-01-05T04:51:45.659Z,93.05
2023-01-05T04:54:13.688Z,93.09
2023-01-05T04:56:41.723Z,93.23
2023-01-05T04:59:11.256Z,93.28
2023-01-05T05:01:39.590Z,93.29
2023-01-05T05:04:07.626Z,93.09
2023-01-05T05:06:35.702Z,93.00
2023-01-05T05:09:04.285Z,92.95
2023-01-05T05:11:32.374Z,92.87
2023-01-05T05:14:00.387Z,92.76
2023-01-05T05:16:32.233Z,92.75
2023-01-05T05:19:00.622Z,92.51
2023-01-05T05:21:28.616Z,92.27
2023-01-05T05:23:56.664Z,91.97
2023-01-05T05:26:24.967Z,91.84
2023-01-05T05:28:52.972Z,91.72
2023-01-05T05:31:20.998Z,91.48
2023-01-05T05:33:50.769Z,91.33
2023-01-05T05:36:18.875Z,91.04
2023-01-05T05:38:46.883Z,90.90
2023-01-05T05:41:15.189Z,90.78
2023-01-05T05:43:43.226Z,90.64
2023-01-05T05:46:11.308Z,90.49
2023-01-05T05:48:39.340Z,90.54
2023-01-05T05:51:08.766Z,90.53
2023-01-05T05:53:36.818Z,90.52
2023-01-05T05:56:05.392Z,90.37
2023-01-05T05:58:33.462Z,90.14
2023-01-05T06:01:01.855Z,89.83
2023-01-05T06:03:29.931Z,89.78
2023-01-05T06:05:57.966Z,89.78
2023-01-05T06:08:29.500Z,89.99
2023-01-05T06:10:57.602Z,90.31
2023-01-05T06:13:26.168Z,90.61
2023-01-05T06:15:54.935Z,91.10
2023-01-05T06:18:22.984Z,91.50
2023-01-05T06:20:53.952Z,91.87
2023-01-05T06:23:24.331Z,92.27
2023-01-05T06:25:53.630Z,92.65
2023-01-05T06:28:21.681Z,93.79
2023-01-05T06:30:49.967Z,94.14
2023-01-05T06:33:17.980Z,94.33
2023-01-05T06:35:45.968Z,94.54
2023-01-05T06:38:16.055Z,94.49
2023-01-05T06:40:44.826Z,94.50
2023-01-05T06:43:14.240Z,94.61
2023-01-05T06:45:42.265Z,94.57
2023-01-05T06:48:10.336Z,94.48
2023-01-05T06:50:38.375Z,94.44
2023-01-05T06:53:06.411Z,94.51
2023-01-05T06:55:34.372Z,94.57
2023-01-05T06:58:02.386Z,94.70
2023-01-05T07:00:31.848Z,94.80
2023-01-05T07:03:00.096Z,94.86
2023-01-05T07:05:28.167Z,94.98
2023-01-05T07:07:56.262Z,94.92
2023-01-05T07:10:24.460Z,94.81
2023-01-05T07:12:52.447Z,94.74
2023-01-05T07:15:20.453Z,94.75
2023-01-05T07:17:50.092Z,94.71
2023-01-05T07:20:18.139Z,94.74
2023-01-05T07:22:46.196Z,94.77
2023-01-05T07:25:14.180Z,94.76
2023-01-05T07:27:42.201Z,94.70
2023-01-05T07:30:11.705Z,94.58
2023-01-05T07:32:40.011Z,94.42
2023-01-05T07:35:10.309Z,94.38
2023-01-05T07:37:38.491Z,94.41
2023-01-05T07:40:07.934Z,94.45
2023-01-05T07:42:35.912Z,94.39
2023-01-05T07:45:04.996Z,94.39
2023-01-05T07:47:33.106Z,94.31
2023-01-05T07:50:01.964Z,94.17
2023-01-05T07:52:33.093Z,94.11
2023-01-05T07:55:01.271Z,94.07
2023-01-05T07:57:29.370Z,94.02
2023-01-05T07:59:57.771Z,93.95
2023-01-05T08:02:32.301Z,93.81
2023-01-05T08:05:03.528Z,93.73
2023-01-05T08:07:33.084Z,93.68
2023-01-05T08:10:18.461Z,93.69
2023-01-05T08:13:03.924Z,93.79
2023-01-05T08:15:32.145Z,94.01
2023-01-05T08:18:00.283Z,94.30
2023-01-05T08:20:28.248Z,94.48
2023-01-05T08:22:57.848Z,94.33
2023-01-05T08:25:25.911Z,94.12
2023-01-05T08:27:54.575Z,94.08
2023-01-05T08:30:22.788Z,93.96
2023-01-05T08:32:50.813Z,93.91
2023-01-05T08:35:19.281Z,93.85
2023-01-05T08:37:47.547Z,93.95
2023-01-05T08:40:17.207Z,94.06
2023-01-05T08:42:48.150Z,94.19
2023-01-05T08:45:16.760Z,94.29
2023-01-05T08:47:45.126Z,94.13
2023-01-05T08:50:13.242Z,94.03
2023-01-05T08:52:41.569Z,93.93
2023-01-05T08:55:10.031Z,93.82
2023-01-05T08:57:39.523Z,93.54
2023-01-05T09:00:09.742Z,93.16
2023-01-05T09:02:38.147Z,92.91
2023-01-05T09:05:07.153Z,92.67
2023-01-05T09:07:35.466Z,92.23
2023-01-05T09:10:03.403Z,91.86
2023-01-05T09:12:33.375Z,91.51
2023-01-05T09:15:03.536Z,91.37
2023-01-05T09:17:32.736Z,91.35
2023-01-05T09:20:03.748Z,91.45
2023-01-05T09:22:31.991Z,90.94
2023-01-05T09:25:00.056Z,90.77
2023-01-05T09:27:28.209Z,90.78
2023-01-05T09:29:56.292Z,91.43
2023-01-05T09:32:25.752Z,91.01
2023-01-05T09:34:53.789Z,90.49
2023-01-05T09:37:21.930Z,88.88
2023-01-05T09:39:50.601Z,87.92
2023-01-05T09:42:21.895Z,85.04
2023-01-05T09:44:58.401Z,83.32
2023-01-05T09:47:31.807Z,81.48
2023-01-05T09:50:00.886Z,80.29
2023-01-05T09:52:32.817Z,78.40
2023-01-05T09:55:05.543Z,77.18
2023-01-05T09:57:34.007Z,76.56
2023-01-05T10:00:05.120Z,76.97
2023-01-05T10:02:36.488Z,76.39
2023-01-05T10:05:06.112Z,75.52
2023-01-05T10:07:42.925Z,75.95
2023-01-05T10:10:28.060Z,75.32
2023-01-05T10:13:04.500Z,76.91
2023-01-05T10:15:37.795Z,76.53
2023-01-05T10:18:13.258Z,77.14
2023-01-05T10:20:48.345Z,78.08
2023-01-05T10:23:27.388Z,77.15
2023-01-05T10:25:58.757Z,78.12
2023-01-05T10:28:35.327Z,77.76
2023-01-05T10:31:05.472Z,78.41
2023-01-05T10:33:52.077Z,78.27
2023-01-05T10:39:27.169Z,78.17
2023-01-05T10:42:00.452Z,77.92
2023-01-05T10:44:38.403Z,77.60
2023-01-05T10:47:09.526Z,78.09
2023-01-05T10:49:41.600Z,78.75
2023-01-05T10:52:14.585Z,79.19
2023-01-05T10:54:45.823Z,82.39
2023-01-05T10:57:38.306Z,81.64
2023-01-05T11:00:11.145Z,81.43
2023-01-05T11:02:40.846Z,81.30
2023-01-05T11:05:24.853Z,81.75
2023-01-05T11:07:55.216Z,78.74
2023-01-05T11:10:25.390Z,78.07
2023-01-05T11:12:56.683Z,78.24
2023-01-05T11:15:25.155Z,77.86
2023-01-05T11:17:55.049Z,78.06
2023-01-05T11:20:24.548Z,77.83
2023-01-05T11:22:53.777Z,78.57
2023-01-05T11:25:27.027Z,78.79
2023-01-05T11:28:11.378Z,78.47
2023-01-05T11:30:48.319Z,78.48
2023-01-05T11:33:25.532Z,78.52
2023-01-05T11:35:55.656Z,78.87
2023-01-05T11:38:27.634Z,78.51
2023-01-05T11:40:57.156Z,78.72
2023-01-05T11:43:27.956Z,77.61
2023-01-05T11:46:00.000Z,77.70
2023-01-05T11:48:32.049Z,78.54
2023-01-05T11:51:02.746Z,78.10
2023-01-05T11:53:38.638Z,77.88
2023-01-05T11:56:17.815Z,77.67
2023-01-05T11:58:46.935Z,77.51
2023-01-05T12:01:27.911Z,77.62
2023-01-05T12:04:02.196Z,77.44
2023-01-05T12:06:51.803Z,77.87
2023-01-05T12:09:29.825Z,77.08
2023-01-05T12:12:11.339Z,77.38
2023-01-05T12:15:00.354Z,77.31
2023-01-05T12:17:33.870Z,78.20
2023-01-05T12:20:14.468Z,78.60
2023-01-05T12:22:53.206Z,78.14
2023-01-05T12:25:43.656Z,78.49
2023-01-05T12:28:41.102Z,78.06
2023-01-05T12:34:29.567Z,77.74
2023-01-05T12:37:06.655Z,77.70
2023-01-05T12:39:54.674Z,78.53
2023-01-05T12:42:37.760Z,78.19
2023-01-05T12:45:31.549Z,78.76
2023-01-05T12:48:02.002Z,78.23
2023-01-05T12:50:34.765Z,78.27
2023-01-05T12:53:09.333Z,77.72
2023-01-05T12:55:42.304Z,77.85
2023-01-05T12:58:14.060Z,78.05
2023-01-05T13:00:46.196Z,76.81
2023-01-05T13:03:16.251Z,76.80
2023-01-05T13:05:46.848Z,76.65
2023-01-05T13:08:18.446Z,76.42
2023-01-05T13:10:51.012Z,76.72
2023-01-05T13:13:21.879Z,76.76
2023-01-05T13:15:53.927Z,76.33
2023-01-05T13:18:23.119Z,76.01
2023-01-05T13:20:54.760Z,76.19
2023-01-05T13:23:26.153Z,76.28
2023-01-05T13:25:58.688Z,77.06
2023-01-05T13:28:28.847Z,76.82
2023-01-05T13:31:18.333Z,77.07
2023-01-05T13:34:12.882Z,77.53
2023-01-05T13:36:54.237Z,78.59
2023-01-05T13:39:43.834Z,77.92
2023-01-05T13:42:40.696Z,77.85
2023-01-05T13:45:55.568Z,78.47
2023-01-05T13:48:44.653Z,78.35
2023-01-05T13:51:30.829Z,78.80
2023-01-05T13:53:59.335Z,79.04
2023-01-05T13:56:28.781Z,79.15
2023-01-05T13:59:02.369Z,79.48
2023-01-05T14:01:37.911Z,79.78
2023-01-05T14:04:06.727Z,79.38
2023-01-05T14:06:37.000Z,79.40
2023-01-05T14:09:06.839Z,79.58
2023-01-05T14:11:36.201Z,79.40
2023-01-05T14:14:08.607Z,79.44
2023-01-05T14:17:03.676Z,79.74
2023-01-05T14:19:51.810Z,80.21
2023-01-05T14:22:37.382Z,80.73
2023-01-05T14:25:43.568Z,80.95
2023-01-05T14:28:25.056Z,80.96
2023-01-05T14:31:35.012Z,81.00
2023-01-05T14:34:05.230Z,81.11
2023-01-05T14:36:36.066Z,80.96
2023-01-05T14:39:26.032Z,81.15
2023-01-05T14:42:01.447Z,81.59
2023-01-05T14:44:32.765Z,81.48
2023-01-05T14:47:02.535Z,81.13
2023-01-05T14:49:33.210Z,80.83
2023-01-05T14:52:02.691Z,80.74
2023-01-05T14:55:05.962Z,81.03
2023-01-05T14:57:49.600Z,80.86
2023-01-05T15:00:21.059Z,81.10
2023-01-05T15:02:57.388Z,81.15
2023-01-05T15:05:26.122Z,81.34
2023-01-05T15:08:02.406Z,81.43
2023-01-05T15:10:49.265Z,81.38
2023-01-05T15:13:41.009Z,81.68
2023-01-05T15:16:15.440Z,81.51
2023-01-05T15:19:11.432Z,81.66
2023-01-05T15:21:53.355Z,81.63
2023-01-05T15:24:51.233Z,81.79
2023-01-05T15:27:51.669Z,82.08
2023-01-05T15:30:33.581Z,81.87
2023-01-05T15:33:09.366Z,82.16
2023-01-05T15:35:43.685Z,82.47
2023-01-05T15:38:20.666Z,82.36
2023-01-05T15:40:49.220Z,82.37
2023-01-05T15:43:18.081Z,82.32
2023-01-05T15:45:51.509Z,82.27
2023-01-05T15:48:25.117Z,82.77
2023-01-05T15:50:56.348Z,82.67
2023-01-05T15:53:26.685Z,82.74
2023-01-05T15:55:54.730Z,82.97
2023-01-05T15:58:24.058Z,83.00
2023-01-05T16:01:03.972Z,83.16
2023-01-05T16:03:34.054Z,83.10
2023-01-05T16:06:05.681Z,83.29
2023-01-05T16:08:36.448Z,83.57
2023-01-05T16:11:07.433Z,83.46
2023-01-05T16:13:38.360Z,83.49
2023-01-05T16:16:12.953Z,83.54
2023-01-05T16:18:47.608Z,83.57
2023-01-05T16:21:22.130Z,83.54
2023-01-05T16:23:52.532Z,83.61
2023-01-05T16:26:20.937Z,83.51
2023-01-05T16:28:48.928Z,83.83
2023-01-05T16:31:27.113Z,83.81
2023-01-05T16:34:03.110Z,83.88
2023-01-05T16:36:32.429Z,83.97
2023-01-05T16:39:14.377Z,83.92
2023-01-05T16:42:02.666Z,84.19
2023-01-05T16:44:33.088Z,84.33
2023-01-05T16:47:11.530Z,84.35
2023-01-05T16:49:49.944Z,84.53
2023-01-05T16:52:33.232Z,84.75
2023-01-05T16:55:28.160Z,85.09
2023-01-05T16:57:56.820Z,85.41
2023-01-05T17:00:36.498Z,85.79
2023-01-05T17:03:27.776Z,85.71
2023-01-05T17:05:56.542Z,85.80
2023-01-05T17:08:28.024Z,85.80
2023-01-05T17:10:58.560Z,86.08
2023-01-05T17:13:28.389Z,86.21
2023-01-05T17:15:56.409Z,86.67
2023-01-05T17:18:27.352Z,86.81
2023-01-05T17:20:57.578Z,86.89
2023-01-05T17:23:28.919Z,86.99
2023-01-05T17:25:59.025Z,86.98
2023-01-05T17:28:27.113Z,87.12
2023-01-05T17:30:55.464Z,87.26
2023-01-05T17:33:23.469Z,87.28
2023-01-05T17:35:56.242Z,87.39
2023-01-05T17:38:24.341Z,87.65
2023-01-05T17:40:52.427Z,88.04
2023-01-05T17:43:20.398Z,87.91
2023-01-05T17:45:48.515Z,87.77
2023-01-05T17:48:17.013Z,87.68
2023-01-05T17:50:45.737Z,87.69
2023-01-05T17:53:15.025Z,87.66
2023-01-05T17:55:44.040Z,87.61
2023-01-05T17:58:14.040Z,87.54
2023-01-05T18:03:22.214Z,87.81
2023-01-05T18:05:52.421Z,87.80
2023-01-05T18:08:22.225Z,87.99
2023-01-05T18:10:50.278Z,87.93
2023-01-05T18:13:21.443Z,87.85
2023-01-05T18:15:52.957Z,87.82
2023-01-05T18:18:21.827Z,87.68
2023-01-05T18:20:51.465Z,87.61
2023-01-05T18:23:20.697Z,87.52
2023-01-05T18:25:50.095Z,87.64
2023-01-05T18:28:18.257Z,87.56
2023-01-05T18:30:46.650Z,87.65
2023-01-05T18:33:14.705Z,87.49
2023-01-05T18:35:43.737Z,87.41
2023-01-05T18:38:12.099Z,87.46
2023-01-05T18:40:40.101Z,87.57
2023-01-05T18:43:09.442Z,87.92
2023-01-05T18:45:39.673Z,88.07
2023-01-05T18:48:08.512Z,88.41
2023-01-05T18:50:40.710Z,88.59
2023-01-05T18:53:08.798Z,88.59
2023-01-05T18:55:41.175Z,88.62
2023-01-05T18:58:11.131Z,88.73
2023-01-05T19:00:39.837Z,88.78
2023-01-05T19:03:08.025Z,88.80
2023-01-05T19:05:50.921Z,88.78
2023-01-05T19:08:18.911Z,88.79
2023-01-05T19:10:46.959Z,88.82
2023-01-05T19:13:16.313Z,88.96
2023-01-05T19:15:44.346Z,89.14
2023-01-05T19:18:12.378Z,89.25
2023-01-05T19:20:40.345Z,89.24
2023-01-05T19:23:08.479Z,89.04
2023-01-05T19:25:36.453Z,89.12
2023-01-05T19:28:04.435Z,89.14
2023-01-05T19:30:35.787Z,89.17
2023-01-05T19:33:03.782Z,89.32
2023-01-05T19:35:32.931Z,89.48
2023-01-05T19:38:02.556Z,89.25
2023-01-05T19:40:30.751Z,89.55
2023-01-05T19:42:58.738Z,89.83
2023-01-05T19:45:26.983Z,90.18
2023-01-05T19:47:56.342Z,90.51
2023-01-05T19:50:24.308Z,90.91
2023-01-05T19:52:53.376Z,91.21
2023-01-05T19:55:21.442Z,91.43
2023-01-05T19:57:49.487Z,91.58
2023-01-05T20:00:18.495Z,91.71
2023-01-05T20:02:47.664Z,91.85
2023-01-05T20:05:17.417Z,91.92
2023-01-05T20:07:45.380Z,91.88
2023-01-05T20:10:14.515Z,92.02
2023-01-05T20:12:42.515Z,92.22
2023-01-05T20:15:13.161Z,92.30
2023-01-05T20:17:42.231Z,92.31
2023-01-05T20:20:12.266Z,92.34
2023-01-05T20:22:41.963Z,92.40
2023-01-05T20:25:10.801Z,92.38
2023-01-05T20:27:39.653Z,92.32
2023-01-05T20:30:08.533Z,92.30
2023-01-05T20:32:36.522Z,92.21
2023-01-05T20:35:06.923Z,92.08
2023-01-05T20:37:34.920Z,91.91
2023-01-05T20:40:05.573Z,91.66
2023-01-05T20:42:33.894Z,91.39
2023-01-05T20:45:03.793Z,91.14
2023-01-05T20:47:39.459Z,90.99
2023-01-05T20:50:15.033Z,90.90
2023-01-05T20:52:43.068Z,90.82
2023-01-05T20:55:12.568Z,90.80
2023-01-05T20:57:40.618Z,90.81
2023-01-05T21:00:10.551Z,90.79
2023-01-05T21:02:38.708Z,90.67
2023-01-05T21:05:07.259Z,90.52
2023-01-05T21:07:35.271Z,90.42
2023-01-05T21:10:03.473Z,90.31
2023-01-05T21:12:48.662Z,89.90
2023-01-05T21:15:16.693Z,89.21
2023-01-05T21:17:44.704Z,88.72
2023-01-05T21:20:12.677Z,88.47
2023-01-05T21:22:40.689Z,88.30
2023-01-05T21:25:09.198Z,88.09
2023-01-05T21:27:37.513Z,87.92
2023-01-05T21:30:08.515Z,87.78
2023-01-05T21:32:39.121Z,87.74
2023-01-05T21:35:09.221Z,87.83
2023-01-05T21:37:37.309Z,88.03
2023-01-05T21:40:06.294Z,88.33
2023-01-05T21:42:45.871Z,88.31
2023-01-05T21:45:15.234Z,88.14
2023-01-05T21:47:43.400Z,88.05
2023-01-05T21:50:32.990Z,87.91
2023-01-05T21:53:18.993Z,87.81
2023-01-05T21:56:05.861Z,87.87
2023-01-05T21:58:34.062Z,87.70
2023-01-05T22:01:04.012Z,87.55
2023-01-05T22:03:32.135Z,87.40
2023-01-05T22:06:00.232Z,87.46
2023-01-05T22:08:28.269Z,87.77
2023-01-05T22:10:56.761Z,88.13
2023-01-05T22:13:25.477Z,88.44
2023-01-05T22:15:54.504Z,88.82
2023-01-05T22:18:25.147Z,88.84
2023-01-05T22:20:53.904Z,88.84
2023-01-05T22:23:21.885Z,88.97
2023-01-05T22:25:58.494Z,88.97
2023-01-05T22:28:26.721Z,89.22
2023-01-05T22:31:02.460Z,89.37
2023-01-05T22:33:32.698Z,89.62
2023-01-05T22:36:00.974Z,89.72
2023-01-05T22:38:29.909Z,89.89
2023-01-05T22:40:59.487Z,89.92
2023-01-05T22:43:27.825Z,89.97
2023-01-05T22:46:01.912Z,90.46
2023-01-05T22:48:33.713Z,90.83
2023-01-05T22:51:04.849Z,91.09
2023-01-05T22:53:33.381Z,91.06
2023-01-05T22:56:01.639Z,91.05
2023-01-05T22:58:29.626Z,91.30
2023-01-05T23:01:07.000Z,91.63
2023-01-05T23:03:36.563Z,91.84
2023-01-05T23:06:04.807Z,91.97
2023-01-05T23:08:33.969Z,92.43
2023-01-05T23:11:02.554Z,92.81
2023-01-05T23:13:30.650Z,92.98
2023-01-05T23:15:58.950Z,93.04
2023-01-05T23:18:27.103Z,93.23
2023-01-05T23:20:58.446Z,93.38
2023-01-05T23:23:27.383Z,93.44
2023-01-05T23:25:56.021Z,93.48
2023-01-05T23:28:25.450Z,93.50
2023-01-05T23:30:55.326Z,93.43
2023-01-05T23:33:25.003Z,93.32
2023-01-05T23:35:53.869Z,93.26
2023-01-05T23:38:24.117Z,93.19
2023-01-05T23:40:53.972Z,93.14
2023-01-05T23:43:24.996Z,93.03
2023-01-05T23:45:54.317Z,92.91
2023-01-05T23:48:22.369Z,93.07
2023-01-05T23:50:50.367Z,93.18
2023-01-05T23:53:18.409Z,93.36
2023-01-05T23:55:47.764Z,93.41
2023-01-05T23:58:15.789Z,93.37
